Time;durP1;ratioP1;P1;durP2;ratioP2;P2;SDS_P1;SDS_P2;PMS_P1;PMS_P2;Temp;Humidity;BMP_temperature;BMP_pressure;BME280_temperature;BME280_humidity;BME280_pressure;Samples;Min_cycle;Max_cycle;Signal;HPM_P1;HPM_P2
2021/05/28 00:00:33;;;;;;;16.23;4.30;;;12.90;60.80;;;;;;5041060;28;20064;-65
2021/05/28 00:02:59;;;;;;;11.30;4.50;;;12.90;60.70;;;;;;5041598;28;20059;-66
2021/05/28 00:05:27;;;;;;;18.40;5.53;;;12.90;60.80;;;;;;5041601;28;20040;-66
2021/05/28 00:07:54;;;;;;;18.88;5.60;;;12.90;60.80;;;;;;5044310;28;20047;-66
2021/05/28 00:10:22;;;;;;;15.82;4.90;;;12.90;61.00;;;;;;5044177;28;20547;-65
2021/05/28 00:12:48;;;;;;;14.43;4.50;;;12.80;60.80;;;;;;5045626;28;20036;-66
2021/05/28 00:15:19;;;;;;;13.35;4.97;;;12.80;61.10;;;;;;5045390;28;20060;-66
2021/05/28 00:17:46;;;;;;;17.42;5.35;;;12.70;60.90;;;;;;5038228;28;20134;-67
2021/05/28 00:20:15;;;;;;;18.75;4.93;;;12.70;60.80;;;;;;5040912;28;20452;-66
2021/05/28 00:22:42;;;;;;;11.50;6.10;;;12.70;61.00;;;;;;5042730;28;20035;-66
2021/05/28 00:25:09;;;;;;;18.45;5.65;;;12.70;61.10;;;;;;5045386;28;20036;-65
2021/05/28 00:27:37;;;;;;;11.95;5.15;;;12.60;61.10;;;;;;5049972;28;20059;-65
2021/05/28 00:30:04;;;;;;;17.02;5.18;;;12.60;61.20;;;;;;5041739;28;20041;-66
2021/05/28 00:32:30;;;;;;;21.92;6.20;;;12.60;61.10;;;;;;5043478;28;20040;-65
2021/05/28 00:34:55;;;;;;;14.18;5.47;;;12.60;61.20;;;;;;5048234;28;20071;-65
2021/05/28 00:37:24;;;;;;;23.13;6.13;;;12.50;61.20;;;;;;5050328;28;20037;-65
2021/05/28 00:39:54;;;;;;;16.30;6.00;;;12.50;61.30;;;;;;5043084;28;20111;-66
2021/05/28 00:42:19;;;;;;;17.70;6.63;;;12.50;61.40;;;;;;5033038;28;20659;-67
2021/05/28 00:44:45;;;;;;;14.65;6.28;;;12.50;61.40;;;;;;5040664;28;20087;-65
2021/05/28 00:47:12;;;;;;;15.73;6.43;;;12.50;61.50;;;;;;5050856;28;20445;-65
2021/05/28 00:49:38;;;;;;;26.20;7.15;;;12.50;61.60;;;;;;5057403;28;20040;-66
2021/05/28 00:52:06;;;;;;;23.15;7.00;;;12.50;61.70;;;;;;5055831;28;20043;-65
2021/05/28 00:54:37;;;;;;;23.80;8.02;;;12.50;61.80;;;;;;5054449;28;26076;-65
2021/05/28 00:57:05;;;;;;;16.08;6.70;;;12.40;61.80;;;;;;5044277;28;20106;-65
2021/05/28 00:59:33;;;;;;;23.88;6.70;;;12.40;62.00;;;;;;5040618;28;20094;-65
2021/05/28 01:01:59;;;;;;;15.38;7.13;;;12.40;62.00;;;;;;5051331;28;20029;-66
2021/05/28 01:04:29;;;;;;;26.13;7.63;;;12.40;62.10;;;;;;5051257;28;20044;-66
2021/05/28 01:06:54;;;;;;;20.60;7.80;;;12.40;62.10;;;;;;5053628;28;20422;-65
2021/05/28 01:09:22;;;;;;;20.73;7.75;;;12.40;62.40;;;;;;5038696;28;20067;-65
2021/05/28 01:11:52;;;;;;;30.77;8.23;;;12.40;62.10;;;;;;5052937;28;20085;-65
2021/05/28 01:14:21;;;;;;;25.85;8.95;;;12.40;62.20;;;;;;5044633;28;20615;-66
2021/05/28 01:16:46;;;;;;;29.98;9.70;;;12.40;62.30;;;;;;5047593;28;20041;-66
2021/05/28 01:19:12;;;;;;;28.80;10.48;;;12.40;62.50;;;;;;5040414;28;20067;-65
2021/05/28 01:21:37;;;;;;;30.45;8.95;;;12.50;62.80;;;;;;5047456;28;20513;-66
2021/05/28 01:24:06;;;;;;;28.42;9.60;;;12.50;63.00;;;;;;5051878;28;20042;-65
2021/05/28 01:26:34;;;;;;;28.88;10.23;;;12.50;63.10;;;;;;5048458;28;20571;-65
2021/05/28 01:29:02;;;;;;;31.98;11.40;;;12.70;63.30;;;;;;5039215;28;20044;-65
2021/05/28 01:31:29;;;;;;;31.75;10.88;;;12.70;63.50;;;;;;5044649;28;20547;-66
2021/05/28 01:33:57;;;;;;;32.65;11.90;;;12.70;63.50;;;;;;5045782;28;20458;-66
2021/05/28 01:36:25;;;;;;;30.60;11.57;;;12.80;63.60;;;;;;5053381;28;20187;-66
2021/05/28 01:38:50;;;;;;;30.15;12.73;;;12.90;63.60;;;;;;5036259;28;20438;-65
2021/05/28 01:41:16;;;;;;;37.55;13.02;;;12.90;63.70;;;;;;5045153;28;20094;-65
2021/05/28 01:43:42;;;;;;;40.55;13.15;;;13.00;63.80;;;;;;5047959;28;20112;-66
2021/05/28 01:46:10;;;;;;;43.15;14.35;;;13.10;63.80;;;;;;5055310;28;20117;-65
2021/05/28 01:48:37;;;;;;;42.30;14.93;;;13.20;63.90;;;;;;5046009;28;20041;-65
2021/05/28 01:51:07;;;;;;;42.78;13.70;;;13.20;63.90;;;;;;5048952;28;20036;-66
2021/05/28 01:53:37;;;;;;;37.00;13.85;;;13.30;64.00;;;;;;5049559;28;20094;-65
2021/05/28 01:56:10;;;;;;;42.15;14.25;;;13.40;64.00;;;;;;5050515;28;20043;-65
2021/05/28 01:58:38;;;;;;;33.70;13.85;;;13.40;64.00;;;;;;5041882;28;20052;-65
2021/05/28 02:01:06;;;;;;;41.17;14.80;;;13.50;63.90;;;;;;5040849;28;20101;-65
2021/05/28 02:03:36;;;;;;;37.83;15.32;;;13.50;63.90;;;;;;5043111;28;20047;-66
2021/05/28 02:06:07;;;;;;;34.17;14.05;;;13.60;63.90;;;;;;5050900;28;20280;-65
2021/05/28 02:08:33;;;;;;;39.33;14.50;;;13.60;63.80;;;;;;5048017;28;20047;-66
2021/05/28 02:11:03;;;;;;;34.72;13.38;;;13.70;63.80;;;;;;5051325;28;20028;-65
2021/05/28 02:13:28;;;;;;;41.25;14.32;;;13.70;63.80;;;;;;5055464;28;20040;-66
2021/05/28 02:15:54;;;;;;;46.72;14.55;;;13.70;63.80;;;;;;5042982;28;20044;-66
2021/05/28 02:18:22;;;;;;;44.95;16.00;;;13.80;63.90;;;;;;5034378;28;20040;-65
2021/05/28 02:20:49;;;;;;;39.58;16.13;;;13.80;63.80;;;;;;5046506;28;20168;-65
2021/05/28 02:23:15;;;;;;;49.78;17.33;;;13.80;63.80;;;;;;5046981;28;20055;-65
2021/05/28 02:25:41;;;;;;;48.13;18.05;;;13.80;63.80;;;;;;5045898;28;20047;-65
2021/05/28 02:28:08;;;;;;;42.15;16.63;;;13.90;63.90;;;;;;5037336;28;20135;-66
2021/05/28 02:30:41;;;;;;;42.25;16.92;;;13.90;63.40;;;;;;5045025;28;20080;-65
2021/05/28 02:33:06;;;;;;;53.30;18.52;;;13.90;63.80;;;;;;5042184;28;20090;-65
2021/05/28 02:35:34;;;;;;;48.35;18.08;;;13.90;63.70;;;;;;5044813;28;20064;-65
2021/05/28 02:38:00;;;;;;;43.90;17.63;;;14.00;63.80;;;;;;5045564;28;20439;-65
2021/05/28 02:40:28;;;;;;;41.58;17.83;;;14.00;63.80;;;;;;5043967;28;20068;-65
2021/05/28 02:42:58;;;;;;;47.92;18.27;;;14.00;63.70;;;;;;5049569;28;20064;-65
2021/05/28 02:45:24;;;;;;;41.95;16.73;;;14.00;63.70;;;;;;5045017;28;20043;-65
2021/05/28 02:47:49;;;;;;;31.88;16.73;;;14.10;63.70;;;;;;5042242;28;20044;-65
2021/05/28 02:50:17;;;;;;;38.33;16.20;;;14.10;63.70;;;;;;5040428;28;20032;-65
2021/05/28 02:52:45;;;;;;;39.33;16.13;;;14.10;63.70;;;;;;5051398;28;20100;-65
2021/05/28 02:55:11;;;;;;;35.38;16.27;;;14.10;63.70;;;;;;5042808;28;20036;-65
2021/05/28 02:57:39;;;;;;;44.85;17.10;;;14.10;63.60;;;;;;5041964;28;20418;-66
2021/05/28 03:00:06;;;;;;;33.25;14.82;;;14.10;63.60;;;;;;5031760;28;20609;-65
2021/05/28 03:02:34;;;;;;;33.53;16.27;;;14.10;63.60;;;;;;5041833;28;20533;-65
2021/05/28 03:05:00;;;;;;;38.05;15.40;;;14.10;63.60;;;;;;5043231;28;20037;-65
2021/05/28 03:07:28;;;;;;;38.13;15.77;;;14.10;63.50;;;;;;5047568;28;20028;-66
2021/05/28 03:09:57;;;;;;;30.25;15.30;;;14.20;63.60;;;;;;5044922;28;20043;-65
2021/05/28 03:12:22;;;;;;;36.33;15.95;;;14.20;63.50;;;;;;5046556;28;20374;-65
2021/05/28 03:14:48;;;;;;;32.30;14.80;;;14.20;63.40;;;;;;5041144;28;20044;-65
2021/05/28 03:17:14;;;;;;;31.35;15.18;;;14.20;63.30;;;;;;5041878;28;20486;-65
2021/05/28 03:19:44;;;;;;;32.88;16.20;;;14.20;63.30;;;;;;5042763;28;20040;-66
2021/05/28 03:24:44;;;;;;;31.42;15.15;;;14.20;63.20;;;;;;5044905;28;20033;-66
2021/05/28 03:27:10;;;;;;;34.42;15.52;;;14.20;63.20;;;;;;5042433;28;20056;-65
2021/05/28 03:29:36;;;;;;;34.45;15.65;;;14.20;63.20;;;;;;5034755;28;20557;-65
2021/05/28 03:32:02;;;;;;;30.77;14.32;;;14.30;63.30;;;;;;5044963;28;20060;-65
2021/05/28 03:34:28;;;;;;;25.83;14.32;;;14.30;63.20;;;;;;5046590;28;20047;-65
2021/05/28 03:36:56;;;;;;;28.90;14.23;;;14.30;63.20;;;;;;5044421;28;20036;-65
2021/05/28 03:39:24;;;;;;;29.70;14.23;;;14.30;63.10;;;;;;5042148;28;20208;-65
2021/05/28 03:41:49;;;;;;;23.42;13.27;;;14.30;62.80;;;;;;5042994;28;20060;-65
2021/05/28 03:44:15;;;;;;;31.70;13.57;;;14.30;62.90;;;;;;5048026;28;20037;-65
2021/05/28 03:46:42;;;;;;;23.08;12.80;;;14.30;62.90;;;;;;5044536;28;20032;-66
2021/05/28 03:49:08;;;;;;;26.70;13.10;;;14.30;62.90;;;;;;5041215;28;20080;-65
2021/05/28 03:51:33;;;;;;;19.85;12.25;;;14.30;62.90;;;;;;5047653;28;20418;-65
2021/05/28 03:54:01;;;;;;;22.10;12.63;;;14.30;62.90;;;;;;5041524;28;20482;-65
2021/05/28 03:56:31;;;;;;;25.52;12.02;;;14.30;62.80;;;;;;5043263;28;20105;-66
2021/05/28 03:58:57;;;;;;;22.98;14.00;;;14.30;62.70;;;;;;5040321;28;20125;-65
2021/05/28 04:01:22;;;;;;;21.20;12.50;;;14.30;62.60;;;;;;5049474;28;20037;-64
2021/05/28 04:03:50;;;;;;;21.70;11.93;;;14.30;62.50;;;;;;5045636;28;20509;-66
2021/05/28 04:06:16;;;;;;;22.08;11.85;;;14.30;62.40;;;;;;5043005;28;20044;-65
2021/05/28 04:08:41;;;;;;;21.58;11.75;;;14.30;62.30;;;;;;5037622;28;20036;-66
2021/05/28 04:11:09;;;;;;;19.92;12.32;;;14.30;62.30;;;;;;5051036;28;20387;-65
2021/05/28 04:13:37;;;;;;;28.60;13.70;;;14.30;62.30;;;;;;5050676;28;20036;-65
2021/05/28 04:16:03;;;;;;;28.48;15.23;;;14.30;62.20;;;;;;5044511;28;20771;-65
2021/05/28 04:18:31;;;;;;;26.90;16.35;;;14.30;62.20;;;;;;5046142;28;20041;-65
2021/05/28 04:20:56;;;;;;;33.92;15.82;;;14.20;62.10;;;;;;5040282;28;20056;-64
2021/05/28 04:23:22;;;;;;;31.80;15.85;;;14.20;62.00;;;;;;5040814;28;20131;-65
2021/05/28 04:25:49;;;;;;;27.50;15.43;;;14.20;61.90;;;;;;5038333;28;20472;-65
2021/05/28 04:28:16;;;;;;;27.63;14.75;;;14.20;61.90;;;;;;5036738;28;20059;-66
2021/05/28 04:30:44;;;;;;;27.17;15.35;;;14.20;62.00;;;;;;5039552;28;20032;-65
2021/05/28 04:33:10;;;;;;;24.05;13.77;;;14.30;62.00;;;;;;5046791;28;20029;-66
2021/05/28 04:35:38;;;;;;;29.05;12.65;;;14.30;61.70;;;;;;5036521;28;20391;-66
2021/05/28 04:38:04;;;;;;;27.92;12.15;;;14.20;61.60;;;;;;5040290;28;20094;-65
2021/05/28 04:40:31;;;;;;;23.17;12.32;;;14.20;61.50;;;;;;5044693;28;20036;-65
2021/05/28 04:42:56;;;;;;;23.73;12.27;;;14.20;61.40;;;;;;5037815;28;20044;-65
2021/05/28 04:45:27;;;;;;;19.75;10.60;;;14.20;61.50;;;;;;5042309;28;20079;-65
2021/05/28 04:47:53;;;;;;;21.65;10.70;;;14.20;61.60;;;;;;5046558;28;20069;-65
2021/05/28 04:50:22;;;;;;;18.98;10.48;;;14.20;61.50;;;;;;5046293;28;20048;-65
2021/05/28 04:52:50;;;;;;;19.70;9.75;;;14.20;61.60;;;;;;5049853;28;20032;-65
2021/05/28 04:55:17;;;;;;;23.85;10.25;;;14.20;61.60;;;;;;5046218;28;20098;-65
2021/05/28 04:57:43;;;;;;;19.05;10.13;;;14.30;61.40;;;;;;5044808;28;20170;-66
2021/05/28 05:00:09;;;;;;;18.33;9.95;;;14.30;61.30;;;;;;5038884;28;20024;-65
2021/05/28 05:02:37;;;;;;;22.08;9.57;;;14.30;61.30;;;;;;5043976;28;20040;-66
2021/05/28 05:05:08;;;;;;;17.52;9.27;;;14.30;61.40;;;;;;5036810;28;20064;-66
2021/05/28 05:07:36;;;;;;;17.75;9.35;;;14.30;61.30;;;;;;5037031;28;20090;-66
2021/05/28 05:10:03;;;;;;;19.73;10.02;;;14.40;61.30;;;;;;5045279;28;20036;-65
2021/05/28 05:12:29;;;;;;;17.98;9.07;;;14.40;61.30;;;;;;5058987;28;20457;-65
2021/05/28 05:14:55;;;;;;;19.42;8.48;;;14.40;61.20;;;;;;5056514;28;20106;-65
2021/05/28 05:17:20;;;;;;;21.58;8.30;;;14.50;61.30;;;;;;5057629;28;20498;-65
2021/05/28 05:19:46;;;;;;;18.02;7.88;;;14.50;61.40;;;;;;5057172;28;20521;-66
2021/05/28 05:22:14;;;;;;;19.10;8.60;;;14.60;61.30;;;;;;5054719;28;20082;-66
2021/05/28 05:24:42;;;;;;;17.05;8.35;;;14.70;61.20;;;;;;5061316;28;20417;-66
2021/05/28 05:27:12;;;;;;;18.20;8.15;;;14.70;61.00;;;;;;5059055;28;20037;-66
2021/05/28 05:29:38;;;;;;;18.20;7.85;;;14.80;61.10;;;;;;5043349;28;20645;-65
2021/05/28 05:32:04;;;;;;;17.90;8.48;;;14.80;61.30;;;;;;5053784;28;20047;-65
2021/05/28 05:34:32;;;;;;;17.58;7.15;;;15.00;61.30;;;;;;5058834;28;20055;-65
2021/05/28 05:37:00;;;;;;;16.40;7.25;;;15.20;61.40;;;;;;5052384;28;20043;-65
2021/05/28 05:39:27;;;;;;;16.08;7.18;;;15.30;60.90;;;;;;5057223;28;20068;-66
2021/05/28 05:41:52;;;;;;;13.93;7.72;;;15.40;60.60;;;;;;5046373;28;20037;-66
2021/05/28 05:44:18;;;;;;;11.38;6.32;;;15.60;60.40;;;;;;5046363;28;20121;-65
2021/05/28 05:46:48;;;;;;;17.20;6.38;;;15.80;60.20;;;;;;5050301;28;20040;-65
2021/05/28 05:49:16;;;;;;;13.73;6.75;;;15.90;59.70;;;;;;5041068;28;20070;-65
2021/05/28 05:51:42;;;;;;;12.95;6.70;;;16.10;59.10;;;;;;5042644;28;20040;-66
2021/05/28 05:54:10;;;;;;;12.57;6.25;;;16.10;58.90;;;;;;5059624;28;20059;-66
2021/05/28 05:56:37;;;;;;;12.13;6.22;;;16.20;58.70;;;;;;5060451;28;20097;-65
2021/05/28 05:59:03;;;;;;;11.18;6.95;;;16.30;58.50;;;;;;5049932;28;20387;-66
2021/05/28 06:01:31;;;;;;;11.43;6.10;;;16.70;59.80;;;;;;5056210;28;20040;-65
2021/05/28 06:03:59;;;;;;;10.35;4.70;;;;;;;;;;5056194;28;20063;-68
2021/05/28 06:06:25;;;;;;;9.23;4.60;;;;;;;;;;5051285;28;20134;-66
2021/05/28 06:08:54;;;;;;;10.65;5.00;;;;;;;;;;5043268;28;20383;-66
2021/05/28 06:11:20;;;;;;;13.63;5.22;;;;;;;;;;5055754;28;23335;-66
2021/05/28 06:13:49;;;;;;;7.55;4.13;;;;;;;;;;5049620;28;20028;-67
2021/05/28 06:16:15;;;;;;;13.23;4.15;;;;;;;;;;5041994;28;20055;-66
2021/05/28 06:18:41;;;;;;;8.45;3.70;;;17.90;59.30;;;;;;5036377;28;20041;-66
2021/05/28 06:21:09;;;;;;;11.85;4.40;;;27.30;38.60;;;;;;5043643;28;20090;-67
2021/05/28 06:23:37;;;;;;;7.15;3.70;;;27.10;37.80;;;;;;5046218;28;20052;-66
2021/05/28 06:26:05;;;;;;;9.80;4.10;;;27.10;37.00;;;;;;5048399;28;20032;-66
2021/05/28 06:28:31;;;;;;;10.82;4.10;;;26.60;37.10;;;;;;5040746;28;20043;-66
2021/05/28 06:30:59;;;;;;;9.05;3.67;;;26.40;37.30;;;;;;5043293;28;20033;-66
2021/05/28 06:33:32;;;;;;;11.00;4.07;;;26.50;37.10;;;;;;5042063;28;20763;-67
2021/05/28 06:35:57;;;;;;;7.72;3.63;;;26.20;36.40;;;;;;5042801;28;20041;-66
2021/05/28 06:38:23;;;;;;;7.80;3.30;;;25.30;37.10;;;;;;5044599;28;20094;-66
2021/05/28 06:40:51;;;;;;;9.93;4.05;;;24.70;38.10;;;;;;5044539;28;20078;-66
2021/05/28 06:43:16;;;;;;;10.15;4.10;;;24.30;39.00;;;;;;5044664;28;20047;-66
2021/05/28 06:45:42;;;;;;;7.40;3.47;;;23.80;39.70;;;;;;5050269;28;20041;-66
2021/05/28 06:48:11;;;;;;;10.30;3.63;;;23.40;40.60;;;;;;5052004;28;20106;-66
2021/05/28 06:50:40;;;;;;;8.13;3.75;;;23.40;41.10;;;;;;5041433;28;20029;-66
2021/05/28 06:53:06;;;;;;;8.45;3.70;;;23.20;41.10;;;;;;5045284;28;20263;-66
2021/05/28 06:55:32;;;;;;;8.30;3.60;;;22.90;40.90;;;;;;5045346;28;20085;-66
2021/05/28 06:57:58;;;;;;;7.95;3.72;;;22.50;41.80;;;;;;5037627;28;20036;-65
2021/05/28 07:00:26;;;;;;;10.05;3.80;;;22.10;42.20;;;;;;5039897;28;20045;-66
2021/05/28 07:02:55;;;;;;;11.38;3.70;;;21.80;42.80;;;;;;5036960;28;20102;-66
2021/05/28 07:05:24;;;;;;;9.45;3.75;;;21.50;43.30;;;;;;5036398;28;20047;-66
2021/05/28 07:07:52;;;;;;;7.20;3.72;;;21.30;43.90;;;;;;5037693;28;20032;-66
2021/05/28 07:10:17;;;;;;;9.20;3.30;;;21.20;44.20;;;;;;5042767;28;20592;-66
2021/05/28 07:12:45;;;;;;;10.40;3.40;;;21.20;43.70;;;;;;5048883;28;20148;-67
2021/05/28 07:15:11;;;;;;;12.57;4.30;;;21.20;44.30;;;;;;5042891;28;20067;-66
2021/05/28 07:17:39;;;;;;;6.03;3.63;;;21.00;44.40;;;;;;5035046;28;20199;-66
2021/05/28 07:20:06;;;;;;;10.55;3.55;;;20.80;44.60;;;;;;5040436;28;20676;-65
2021/05/28 07:22:32;;;;;;;10.63;3.38;;;21.20;46.50;;;;;;5047043;28;20858;-67
2021/05/28 07:24:58;;;;;;;9.70;3.60;;;22.40;44.20;;;;;;5042870;28;20225;-66
2021/05/28 07:27:25;;;;;;;5.90;3.17;;;23.20;43.00;;;;;;5047803;28;20040;-67
2021/05/28 07:29:54;;;;;;;9.43;3.05;;;24.40;40.60;;;;;;5039875;28;20091;-67
2021/05/28 07:32:22;;;;;;;10.57;3.75;;;24.70;39.10;;;;;;5047712;28;20524;-66
2021/05/28 07:34:47;;;;;;;5.85;3.08;;;24.50;38.50;;;;;;5043882;28;20044;-64
2021/05/28 07:37:13;;;;;;;5.88;3.10;;;24.10;39.30;;;;;;5046144;28;20044;-68
2021/05/28 07:39:41;;;;;;;6.43;2.90;;;24.50;40.00;;;;;;5033800;28;20121;-67
2021/05/28 07:42:09;;;;;;;8.57;3.92;;;25.60;38.80;;;;;;5041692;28;20454;-67
2021/05/28 07:44:35;;;;;;;8.15;2.55;;;27.40;36.40;;;;;;5041917;28;20042;-67
2021/05/28 07:47:01;;;;;;;7.72;2.85;;;29.10;33.70;;;;;;5041966;28;20410;-68
2021/05/28 07:49:27;;;;;;;6.38;2.58;;;;;;;;;;5041302;28;20048;-67
2021/05/28 07:51:57;;;;;;;8.55;2.88;;;;;;;;;;5046350;28;20123;-67
2021/05/28 07:54:23;;;;;;;9.60;3.05;;;;;;;;;;5046518;28;20680;-68
2021/05/28 07:56:49;;;;;;;6.25;2.42;;;;;;;;;;5046499;28;20118;-68
2021/05/28 07:59:17;;;;;;;7.53;2.63;;;;;;;;;;5037429;28;20123;-68
2021/05/28 08:01:44;;;;;;;5.57;2.58;;;30.60;31.20;;;;;;5053868;28;20551;-68
2021/05/28 08:04:12;;;;;;;6.22;3.00;;;35.60;25.80;;;;;;5039351;28;20032;-67
2021/05/28 08:06:38;;;;;;;7.45;2.80;;;36.00;25.10;;;;;;5045141;28;20576;-68
2021/05/28 08:09:06;;;;;;;8.55;2.65;;;36.50;24.30;;;;;;5039609;28;20036;-68
2021/05/28 08:11:32;;;;;;;6.53;2.20;;;;;;;;;;5050996;28;20032;-68
2021/05/28 08:13:58;;;;;;;6.20;2.60;;;;;;;;;;5041903;28;20072;-68
2021/05/28 08:16:24;;;;;;;6.75;2.40;;;;;;;;;;5049065;28;20037;-68
2021/05/28 08:18:50;;;;;;;6.38;2.67;;;;;;;;;;5039185;28;20036;-68
2021/05/28 08:21:19;;;;;;;6.00;2.15;;;;;;;;;;5049111;28;20029;-68
2021/05/28 08:23:47;;;;;;;9.50;2.67;;;;;;;;;;5048787;28;20121;-67
2021/05/28 08:26:14;;;;;;;7.15;2.53;;;;;;;;;;5052779;28;20214;-68
2021/05/28 08:28:40;;;;;;;7.35;2.47;;;;;;;;;;5040004;28;20036;-68
2021/05/28 08:31:11;;;;;;;9.13;2.83;;;;;;;;;;5037949;28;20110;-68
2021/05/28 08:33:38;;;;;;;4.40;2.40;;;;;;;;;;5042327;28;20688;-68
2021/05/28 08:36:06;;;;;;;6.70;2.78;;;;;;;;;;5038986;28;20157;-67
2021/05/28 08:38:32;;;;;;;4.00;1.92;;;;;;;;;;5034541;28;20040;-68
2021/05/28 08:40:58;;;;;;;6.03;2.35;;;;;;;;;;5040182;28;20148;-68
2021/05/28 08:43:24;;;;;;;7.30;2.55;;;;;;;;;;5038020;28;20036;-67
2021/05/28 08:45:53;;;;;;;5.63;2.13;;;;;;;;;;5041345;28;20524;-68
2021/05/28 08:48:20;;;;;;;6.60;2.50;;;;;;;;;;5027505;28;20045;-68
2021/05/28 08:50:47;;;;;;;5.22;2.45;;;;;;;;;;5045282;28;20037;-67
2021/05/28 08:53:13;;;;;;;6.97;2.42;;;;;;;;;;5044485;28;20044;-67
2021/05/28 08:55:40;;;;;;;11.20;2.42;;;;;;;;;;5035563;28;20032;-67
2021/05/28 08:58:11;;;;;;;8.40;2.90;;;37.20;23.70;;;;;;5038047;28;20041;-67
2021/05/28 09:00:37;;;;;;;7.22;2.67;;;35.40;24.30;;;;;;5038536;28;20116;-67
2021/05/28 09:03:25;;;;;;;6.32;2.72;;;35.70;24.30;;;;;;5040914;28;20144;-68
2021/05/28 09:05:53;;;;;;;6.75;2.53;;;36.30;24.00;;;;;;5043908;28;20040;-67
2021/05/28 09:08:33;;;;;;;7.70;2.22;;;36.40;23.30;;;;;;5034249;28;20033;-66
2021/05/28 09:11:15;;;;;;;5.25;2.47;;;;;;;;;;5042378;28;20484;-67
2021/05/28 09:13:44;;;;;;;4.72;2.38;;;;;;;;;;5051690;28;20036;-67
2021/05/28 09:16:11;;;;;;;4.75;2.10;;;;;;;;;;5048580;28;20036;-67
2021/05/28 09:18:48;;;;;;;5.65;2.08;;;;;;;;;;5038620;28;21727;-66
2021/05/28 09:21:22;;;;;;;5.05;2.17;;;;;;;;;;5043635;28;20066;-66
2021/05/28 09:23:51;;;;;;;5.13;2.08;;;;;;;;;;5038577;28;20343;-67
2021/05/28 09:26:17;;;;;;;7.72;1.80;;;36.00;23.90;;;;;;5045941;28;20456;-67
2021/05/28 09:28:45;;;;;;;4.38;1.70;;;35.40;24.30;;;;;;5037600;28;20094;-67
2021/05/28 09:31:23;;;;;;;6.60;1.92;;;35.10;24.30;;;;;;5039671;28;20036;-66
2021/05/28 09:33:53;;;;;;;4.18;1.95;;;35.30;24.30;;;;;;5051855;28;20624;-67
2021/05/28 09:36:19;;;;;;;6.20;1.75;;;;;;;;;;5041334;28;20064;-67
2021/05/28 09:38:59;;;;;;;4.35;2.00;;;;;;;;;;5041903;28;20284;-67
2021/05/28 09:41:34;;;;;;;3.88;2.10;;;;;;;;;;5050703;28;20540;-66
2021/05/28 09:44:13;;;;;;;5.68;1.50;;;35.60;24.10;;;;;;5051493;28;20063;-66
2021/05/28 09:46:59;;;;;;;2.20;1.48;;;;;;;;;;5043789;28;20455;-67
2021/05/28 09:49:26;;;;;;;7.75;1.60;;;;;;;;;;5037685;28;20422;-66
2021/05/28 09:52:11;;;;;;;7.00;1.50;;;;;;;;;;5048990;28;20044;-67
2021/05/28 09:54:38;;;;;;;5.07;1.75;;;;;;;;;;5047163;28;20063;-67
2021/05/28 09:57:07;;;;;;;5.38;1.92;;;;;;;;;;5035896;28;20086;-67
2021/05/28 09:59:44;;;;;;;5.38;1.70;;;;;;;;;;5049684;28;20040;-66
2021/05/28 10:02:22;;;;;;;3.20;1.65;;;;;;;;;;5054492;28;20114;-67
2021/05/28 10:04:55;;;;;;;2.67;1.50;;;;;;;;;;5050855;28;20126;-66
2021/05/28 10:07:21;;;;;;;3.45;1.58;;;;;;;;;;5048679;28;20406;-67
2021/05/28 10:09:47;;;;;;;4.63;1.60;;;;;;;;;;5033047;28;20929;-67
2021/05/28 10:12:13;;;;;;;4.20;1.65;;;;;;;;;;5045796;28;20046;-67
2021/05/28 10:14:40;;;;;;;4.50;1.85;;;;;;;;;;5051673;28;20329;-66
2021/05/28 10:17:06;;;;;;;3.78;1.67;;;;;;;;;;5044628;28;20045;-67
2021/05/28 10:19:37;;;;;;;3.92;1.60;;;;;;;;;;5037199;28;20272;-66
2021/05/28 10:22:05;;;;;;;4.78;1.45;;;;;;;;;;5049614;28;20047;-66
2021/05/28 10:24:31;;;;;;;7.07;1.70;;;;;;;;;;5048744;28;20630;-66
2021/05/28 10:26:57;;;;;;;4.90;1.35;;;;;;;;;;5044434;28;20485;-66
2021/05/28 10:29:30;;;;;;;3.95;1.42;;;;;;;;;;5045461;28;20045;-65
2021/05/28 10:31:57;;;;;;;4.03;1.40;;;;;;;;;;5045488;28;20115;-66
2021/05/28 10:34:26;;;;;;;2.33;1.40;;;;;;;;;;5051617;28;20414;-66
2021/05/28 10:36:56;;;;;;;4.18;1.45;;;;;;;;;;5059744;28;20514;-66
2021/05/28 10:39:24;;;;;;;4.90;1.85;;;;;;;;;;5042730;28;20149;-65
2021/05/28 10:42:10;;;;;;;7.78;1.70;;;36.50;24.10;;;;;;5050731;28;20125;-66
2021/05/28 10:44:46;;;;;;;5.05;2.00;;;32.50;25.90;;;;;;5054225;28;20397;-65
2021/05/28 10:47:16;;;;;;;6.78;1.77;;;31.60;27.40;;;;;;5052468;28;20037;-66
2021/05/28 10:49:44;;;;;;;4.72;1.75;;;31.30;28.70;;;;;;5050765;28;20398;-66
2021/05/28 10:52:12;;;;;;;3.10;1.70;;;31.50;28.40;;;;;;5061064;28;20159;-66
2021/05/28 10:54:46;;;;;;;3.00;1.58;;;31.40;27.40;;;;;;5047753;28;20521;-66
2021/05/28 10:57:19;;;;;;;2.65;1.35;;;31.10;28.00;;;;;;5036062;28;20086;-67
2021/05/28 10:59:48;;;;;;;2.83;1.50;;;30.90;28.30;;;;;;5058213;28;20207;-66
2021/05/28 11:02:37;;;;;;;6.00;1.60;;;30.80;28.00;;;;;;5052452;28;20119;-67
2021/05/28 11:05:03;;;;;;;4.00;1.80;;;30.60;28.10;;;;;;5029026;28;20041;-67
2021/05/28 11:07:40;;;;;;;3.92;1.80;;;30.50;28.00;;;;;;5036918;28;20131;-66
2021/05/28 11:10:19;;;;;;;5.93;2.08;;;30.20;28.20;;;;;;5042767;28;20039;-67
2021/05/28 11:12:45;;;;;;;7.05;1.88;;;29.70;28.70;;;;;;5030473;28;20047;-67
2021/05/28 11:15:15;;;;;;;6.03;2.15;;;29.30;28.80;;;;;;5024281;28;20040;-67
2021/05/28 11:18:00;;;;;;;5.28;1.92;;;29.10;29.90;;;;;;5026975;28;20047;-66
2021/05/28 11:20:40;;;;;;;5.60;2.00;;;29.00;30.00;;;;;;5035506;28;20114;-66
2021/05/28 11:23:21;;;;;;;2.88;1.80;;;29.00;30.00;;;;;;5025962;28;20032;-67
2021/05/28 11:25:51;;;;;;;5.50;2.38;;;29.10;29.80;;;;;;5028881;28;20029;-67
2021/05/28 11:28:20;;;;;;;7.07;2.30;;;29.00;29.90;;;;;;5032430;28;20032;-66
2021/05/28 11:30:57;;;;;;;4.55;2.25;;;28.60;29.90;;;;;;5042591;28;20040;-67
2021/05/28 11:33:34;;;;;;;8.32;2.67;;;28.20;30.40;;;;;;5027093;28;20090;-66
2021/05/28 11:36:16;;;;;;;5.95;2.38;;;27.80;31.40;;;;;;5029368;28;20044;-66
2021/05/28 11:38:43;;;;;;;6.28;2.25;;;27.60;32.90;;;;;;5031219;28;20063;-66
2021/05/28 11:41:11;;;;;;;5.53;2.15;;;;;;;;;;5031677;28;20029;-67
2021/05/28 11:43:37;;;;;;;4.35;2.00;;;;;;;;;;5031657;28;20039;-67
2021/05/28 11:46:03;;;;;;;5.20;1.92;;;;;;;;;;5030287;28;20024;-66
2021/05/28 11:48:29;;;;;;;2.92;1.67;;;;;;;;;;5028181;28;20036;-68
2021/05/28 11:50:57;;;;;;;3.70;1.70;;;27.70;33.00;;;;;;5028808;28;20097;-67
2021/05/28 11:53:25;;;;;;;3.53;1.50;;;28.60;31.30;;;;;;5036317;28;20913;-66
2021/05/28 11:55:57;;;;;;;3.60;1.60;;;28.70;31.50;;;;;;5029498;28;20056;-67
2021/05/28 11:58:25;;;;;;;7.30;1.75;;;28.70;30.50;;;;;;5033778;28;20606;-66
2021/05/28 12:00:55;;;;;;;5.05;1.67;;;28.70;31.40;;;;;;5033651;28;20043;-67
2021/05/28 12:03:23;;;;;;;6.07;1.67;;;28.60;30.50;;;;;;5029658;28;20040;-66
2021/05/28 12:05:51;;;;;;;4.20;1.60;;;28.50;31.80;;;;;;5033675;28;20044;-66
2021/05/28 12:08:27;;;;;;;2.88;1.45;;;28.50;31.00;;;;;;5033885;28;20048;-67
2021/05/28 12:10:55;;;;;;;2.95;1.63;;;28.60;30.90;;;;;;5028042;28;20036;-67
2021/05/28 12:13:27;;;;;;;2.88;1.50;;;28.60;31.20;;;;;;5027938;28;20036;-66
2021/05/28 12:15:56;;;;;;;2.35;1.38;;;28.60;31.30;;;;;;5025263;28;20147;-67
2021/05/28 12:18:27;;;;;;;10.63;1.83;;;28.80;30.60;;;;;;5030524;28;20085;-65
2021/05/28 12:21:05;;;;;;;5.30;1.52;;;28.90;31.00;;;;;;5028815;28;20086;-67
2021/05/28 12:23:52;;;;;;;2.95;1.35;;;29.00;30.00;;;;;;5026526;28;20068;-66
2021/05/28 12:26:24;;;;;;;4.47;1.60;;;29.20;31.00;;;;;;5033902;28;20040;-66
2021/05/28 12:29:00;;;;;;;4.88;1.70;;;29.30;30.00;;;;;;5037823;28;20040;-66
2021/05/28 12:31:36;;;;;;;5.45;1.80;;;29.10;29.70;;;;;;5033454;28;20048;-66
2021/05/28 12:34:09;;;;;;;8.95;1.80;;;28.60;30.00;;;;;;5031416;28;20134;-66
2021/05/28 12:36:46;;;;;;;3.55;1.50;;;28.10;30.50;;;;;;5035021;28;20106;-66
2021/05/28 12:39:18;;;;;;;3.65;1.50;;;27.90;32.10;;;;;;5032008;28;20055;-66
2021/05/28 12:41:46;;;;;;;2.38;1.40;;;27.60;32.10;;;;;;5028047;28;20045;-66
2021/05/28 12:44:17;;;;;;;8.10;1.83;;;27.30;31.80;;;;;;5030630;28;20045;-66
2021/05/28 12:46:54;;;;;;;4.18;1.80;;;27.00;31.90;;;;;;5034258;28;20416;-66
2021/05/28 12:49:19;;;;;;;3.75;1.95;;;26.70;32.40;;;;;;5034925;28;20044;-66
2021/05/28 12:51:46;;;;;;;3.88;1.50;;;26.60;33.60;;;;;;5032186;28;20618;-66
2021/05/28 12:54:19;;;;;;;2.80;1.50;;;26.70;33.80;;;;;;5033993;28;20041;-67
2021/05/28 12:56:51;;;;;;;4.22;1.60;;;26.60;33.50;;;;;;5038036;28;20174;-67
2021/05/28 12:59:25;;;;;;;2.55;1.73;;;26.60;34.10;;;;;;5033201;28;20040;-66
2021/05/28 13:01:52;;;;;;;4.88;1.48;;;26.60;34.20;;;;;;5035383;28;20151;-66
2021/05/28 13:04:18;;;;;;;5.15;1.38;;;26.70;32.90;;;;;;5025227;28;20543;-66
2021/05/28 13:06:51;;;;;;;4.30;1.27;;;26.90;32.60;;;;;;5018582;28;20033;-67
2021/05/28 13:09:31;;;;;;;2.17;1.17;;;27.30;32.40;;;;;;5034251;28;20145;-66